sensor_id;sensor_type;location;lat;lon;timestamp;temperature;humidity
18454;DHT22;9356;52.202;20.950;2023-07-22T00:00:58;20.00;92.50
18454;DHT22;9356;52.202;20.950;2023-07-22T00:02:01;20.00;92.60
18454;DHT22;9356;52.202;20.950;2023-07-22T00:03:05;20.00;92.80
18454;DHT22;9356;52.202;20.950;2023-07-22T00:04:11;20.00;93.00
18454;DHT22;9356;52.202;20.950;2023-07-22T00:05:15;20.00;93.20
18454;DHT22;9356;52.202;20.950;2023-07-22T00:06:18;20.00;93.30
18454;DHT22;9356;52.202;20.950;2023-07-22T00:07:22;20.00;93.30
18454;DHT22;9356;52.202;20.950;2023-07-22T00:08:28;20.00;93.70
18454;DHT22;9356;52.202;20.950;2023-07-22T00:09:33;20.00;93.80
18454;DHT22;9356;52.202;20.950;2023-07-22T00:10:41;20.00;93.90
18454;DHT22;9356;52.202;20.950;2023-07-22T00:11:46;20.00;94.10
18454;DHT22;9356;52.202;20.950;2023-07-22T00:12:49;20.10;94.40
18454;DHT22;9356;52.202;20.950;2023-07-22T00:13:54;20.10;94.50
18454;DHT22;9356;52.202;20.950;2023-07-22T00:14:58;20.10;94.50
18454;DHT22;9356;52.202;20.950;2023-07-22T00:16:02;20.10;94.40
18454;DHT22;9356;52.202;20.950;2023-07-22T00:17:06;20.10;94.70
18454;DHT22;9356;52.202;20.950;2023-07-22T00:18:13;20.20;94.80
18454;DHT22;9356;52.202;20.950;2023-07-22T00:19:16;20.20;95.00
18454;DHT22;9356;52.202;20.950;2023-07-22T00:20:23;20.20;95.10
18454;DHT22;9356;52.202;20.950;2023-07-22T00:21:28;20.30;95.10
18454;DHT22;9356;52.202;20.950;2023-07-22T00:22:34;20.30;95.10
18454;DHT22;9356;52.202;20.950;2023-07-22T00:23:38;20.40;95.30
18454;DHT22;9356;52.202;20.950;2023-07-22T00:24:42;20.40;95.40
18454;DHT22;9356;52.202;20.950;2023-07-22T00:25:47;20.40;95.40
18454;DHT22;9356;52.202;20.950;2023-07-22T00:26:53;20.40;95.40
18454;DHT22;9356;52.202;20.950;2023-07-22T00:27:57;20.50;95.40
18454;DHT22;9356;52.202;20.950;2023-07-22T00:29:02;20.50;95.50
18454;DHT22;9356;52.202;20.950;2023-07-22T00:30:06;20.60;95.30
18454;DHT22;9356;52.202;20.950;2023-07-22T00:31:10;20.60;95.40
18454;DHT22;9356;52.202;20.950;2023-07-22T00:32:15;20.60;95.20
18454;DHT22;9356;52.202;20.950;2023-07-22T00:33:20;20.60;94.90
18454;DHT22;9356;52.202;20.950;2023-07-22T00:34:24;20.50;95.10
18454;DHT22;9356;52.202;20.950;2023-07-22T00:35:29;20.50;95.10
18454;DHT22;9356;52.202;20.950;2023-07-22T00:36:32;20.50;95.00
18454;DHT22;9356;52.202;20.950;2023-07-22T00:37:38;20.50;95.00
18454;DHT22;9356;52.202;20.950;2023-07-22T00:38:43;20.40;95.20
18454;DHT22;9356;52.202;20.950;2023-07-22T00:39:48;20.40;95.40
18454;DHT22;9356;52.202;20.950;2023-07-22T00:40:50;20.30;95.50
18454;DHT22;9356;52.202;20.950;2023-07-22T00:41:54;20.30;95.60
18454;DHT22;9356;52.202;20.950;2023-07-22T00:42:58;20.30;95.80
18454;DHT22;9356;52.202;20.950;2023-07-22T00:44:03;20.30;95.80
18454;DHT22;9356;52.202;20.950;2023-07-22T00:45:07;20.30;96.00
18454;DHT22;9356;52.202;20.950;2023-07-22T00:46:12;20.20;96.20
18454;DHT22;9356;52.202;20.950;2023-07-22T00:47:17;20.20;96.50
18454;DHT22;9356;52.202;20.950;2023-07-22T00:48:22;20.20;96.60
18454;DHT22;9356;52.202;20.950;2023-07-22T00:49:29;20.20;96.70
18454;DHT22;9356;52.202;20.950;2023-07-22T00:50:35;20.20;96.90
18454;DHT22;9356;52.202;20.950;2023-07-22T00:51:39;20.20;97.10
18454;DHT22;9356;52.202;20.950;2023-07-22T00:52:44;20.20;97.20
18454;DHT22;9356;52.202;20.950;2023-07-22T00:53:49;20.20;97.30
18454;DHT22;9356;52.202;20.950;2023-07-22T00:54:54;20.20;97.60
18454;DHT22;9356;52.202;20.950;2023-07-22T00:55:58;20.20;97.50
18454;DHT22;9356;52.202;20.950;2023-07-22T00:57:06;20.30;97.50
18454;DHT22;9356;52.202;20.950;2023-07-22T00:58:09;20.30;97.40
18454;DHT22;9356;52.202;20.950;2023-07-22T00:59:14;17.80;96.50
18454;DHT22;9356;52.202;20.950;2023-07-22T01:00:18;20.40;97.10
18454;DHT22;9356;52.202;20.950;2023-07-22T01:01:25;20.50;97.10
18454;DHT22;9356;52.202;20.950;2023-07-22T01:02:32;20.50;96.90
18454;DHT22;9356;52.202;20.950;2023-07-22T01:03:38;20.60;96.90
18454;DHT22;9356;52.202;20.950;2023-07-22T01:04:42;20.60;96.80
18454;DHT22;9356;52.202;20.950;2023-07-22T01:05:47;20.70;96.80
18454;DHT22;9356;52.202;20.950;2023-07-22T01:06:55;20.70;96.90
18454;DHT22;9356;52.202;20.950;2023-07-22T01:08:02;20.80;96.80
18454;DHT22;9356;52.202;20.950;2023-07-22T01:09:07;20.80;96.60
18454;DHT22;9356;52.202;20.950;2023-07-22T01:10:13;20.80;96.60
18454;DHT22;9356;52.202;20.950;2023-07-22T01:11:19;20.80;96.50
18454;DHT22;9356;52.202;20.950;2023-07-22T01:12:24;20.80;96.50
18454;DHT22;9356;52.202;20.950;2023-07-22T01:13:28;20.80;96.50
18454;DHT22;9356;52.202;20.950;2023-07-22T01:14:36;20.80;96.40
18454;DHT22;9356;52.202;20.950;2023-07-22T01:15:41;20.80;96.50
18454;DHT22;9356;52.202;20.950;2023-07-22T01:16:46;20.80;96.40
18454;DHT22;9356;52.202;20.950;2023-07-22T01:17:50;20.80;96.40
18454;DHT22;9356;52.202;20.950;2023-07-22T01:18:55;20.10;96.10
18454;DHT22;9356;52.202;20.950;2023-07-22T01:20:00;20.80;96.40
18454;DHT22;9356;52.202;20.950;2023-07-22T01:21:06;20.80;96.40
18454;DHT22;9356;52.202;20.950;2023-07-22T01:22:11;20.70;96.30
18454;DHT22;9356;52.202;20.950;2023-07-22T01:23:18;20.70;96.30
18454;DHT22;9356;52.202;20.950;2023-07-22T01:24:22;20.70;96.50
18454;DHT22;9356;52.202;20.950;2023-07-22T01:25:28;20.60;96.50
18454;DHT22;9356;52.202;20.950;2023-07-22T01:26:32;20.60;96.50
18454;DHT22;9356;52.202;20.950;2023-07-22T01:27:41;20.70;96.70
18454;DHT22;9356;52.202;20.950;2023-07-22T01:28:44;20.50;96.90
18454;DHT22;9356;52.202;20.950;2023-07-22T01:29:51;20.50;97.10
18454;DHT22;9356;52.202;20.950;2023-07-22T01:30:54;20.40;97.00
18454;DHT22;9356;52.202;20.950;2023-07-22T01:31:59;20.30;97.20
18454;DHT22;9356;52.202;20.950;2023-07-22T01:33:03;20.30;97.50
18454;DHT22;9356;52.202;20.950;2023-07-22T01:34:06;20.20;97.30
18454;DHT22;9356;52.202;20.950;2023-07-22T01:35:11;20.20;97.20
18454;DHT22;9356;52.202;20.950;2023-07-22T01:36:16;20.10;97.60
18454;DHT22;9356;52.202;20.950;2023-07-22T01:37:23;20.10;97.90
18454;DHT22;9356;52.202;20.950;2023-07-22T01:38:30;22.40;98.90
18454;DHT22;9356;52.202;20.950;2023-07-22T01:39:35;20.00;98.40
18454;DHT22;9356;52.202;20.950;2023-07-22T01:40:39;20.00;98.50
18454;DHT22;9356;52.202;20.950;2023-07-22T01:41:43;20.00;98.60
18454;DHT22;9356;52.202;20.950;2023-07-22T01:42:47;19.90;98.60
18454;DHT22;9356;52.202;20.950;2023-07-22T01:43:51;19.90;98.60
18454;DHT22;9356;52.202;20.950;2023-07-22T01:44:55;19.90;98.60
18454;DHT22;9356;52.202;20.950;2023-07-22T01:45:59;20.90;99.20
18454;DHT22;9356;52.202;20.950;2023-07-22T01:47:04;19.90;98.70
18454;DHT22;9356;52.202;20.950;2023-07-22T01:48:07;19.90;98.90
18454;DHT22;9356;52.202;20.950;2023-07-22T01:49:15;19.90;99.00
18454;DHT22;9356;52.202;20.950;2023-07-22T01:50:19;19.80;98.80
18454;DHT22;9356;52.202;20.950;2023-07-22T01:51:23;19.90;99.00
18454;DHT22;9356;52.202;20.950;2023-07-22T01:52:26;19.90;99.20
18454;DHT22;9356;52.202;20.950;2023-07-22T01:53:36;19.90;99.10
18454;DHT22;9356;52.202;20.950;2023-07-22T01:54:43;19.90;99.10
18454;DHT22;9356;52.202;20.950;2023-07-22T01:55:46;19.90;99.00
18454;DHT22;9356;52.202;20.950;2023-07-22T01:57:00;19.90;99.20
18454;DHT22;9356;52.202;20.950;2023-07-22T01:58:07;19.90;99.00
18454;DHT22;9356;52.202;20.950;2023-07-22T01:59:11;19.90;99.10
18454;DHT22;9356;52.202;20.950;2023-07-22T02:00:15;19.80;99.10
18454;DHT22;9356;52.202;20.950;2023-07-22T02:01:18;19.80;99.40
18454;DHT22;9356;52.202;20.950;2023-07-22T02:02:23;19.70;99.30
18454;DHT22;9356;52.202;20.950;2023-07-22T02:03:26;19.70;99.20
18454;DHT22;9356;52.202;20.950;2023-07-22T02:04:31;19.60;99.50
18454;DHT22;9356;52.202;20.950;2023-07-22T02:05:35;19.50;99.50
18454;DHT22;9356;52.202;20.950;2023-07-22T02:06:39;19.60;99.80
18454;DHT22;9356;52.202;20.950;2023-07-22T02:07:42;19.50;99.70
18454;DHT22;9356;52.202;20.950;2023-07-22T02:08:50;19.50;99.90
18454;DHT22;9356;52.202;20.950;2023-07-22T02:09:53;17.10;99.30
18454;DHT22;9356;52.202;20.950;2023-07-22T02:11:01;19.40;99.90
18454;DHT22;9356;52.202;20.950;2023-07-22T02:12:08;19.40;99.90
18454;DHT22;9356;52.202;20.950;2023-07-22T02:13:14;19.40;99.90
18454;DHT22;9356;52.202;20.950;2023-07-22T02:14:18;19.40;99.90
18454;DHT22;9356;52.202;20.950;2023-07-22T02:15:24;19.50;99.90
18454;DHT22;9356;52.202;20.950;2023-07-22T02:16:31;19.50;99.90
18454;DHT22;9356;52.202;20.950;2023-07-22T02:17:35;19.50;99.90
18454;DHT22;9356;52.202;20.950;2023-07-22T02:18:38;19.50;99.90
18454;DHT22;9356;52.202;20.950;2023-07-22T02:19:43;19.50;99.90
18454;DHT22;9356;52.202;20.950;2023-07-22T02:20:46;19.40;99.90
18454;DHT22;9356;52.202;20.950;2023-07-22T02:21:51;19.40;99.90
18454;DHT22;9356;52.202;20.950;2023-07-22T02:22:54;19.40;99.90
18454;DHT22;9356;52.202;20.950;2023-07-22T02:24:00;19.50;99.90
18454;DHT22;9356;52.202;20.950;2023-07-22T02:25:06;19.50;99.90
18454;DHT22;9356;52.202;20.950;2023-07-22T02:26:14;19.50;99.90
18454;DHT22;9356;52.202;20.950;2023-07-22T02:27:18;19.50;99.90
18454;DHT22;9356;52.202;20.950;2023-07-22T02:28:23;19.50;99.90
18454;DHT22;9356;52.202;20.950;2023-07-22T02:29:27;19.50;99.90
18454;DHT22;9356;52.202;20.950;2023-07-22T02:30:33;19.60;99.90
18454;DHT22;9356;52.202;20.950;2023-07-22T02:32:45;19.50;99.90
18454;DHT22;9356;52.202;20.950;2023-07-22T02:33:53;19.50;99.90
18454;DHT22;9356;52.202;20.950;2023-07-22T02:35:04;19.50;99.90
18454;DHT22;9356;52.202;20.950;2023-07-22T02:36:08;19.50;99.90
18454;DHT22;9356;52.202;20.950;2023-07-22T02:37:11;19.50;99.90
18454;DHT22;9356;52.202;20.950;2023-07-22T02:38:16;19.50;99.90
18454;DHT22;9356;52.202;20.950;2023-07-22T02:39:20;19.60;99.90
18454;DHT22;9356;52.202;20.950;2023-07-22T02:40:24;19.70;99.90
18454;DHT22;9356;52.202;20.950;2023-07-22T02:41:28;19.70;99.90
18454;DHT22;9356;52.202;20.950;2023-07-22T02:42:33;19.80;99.90
18454;DHT22;9356;52.202;20.950;2023-07-22T02:43:38;19.90;99.90
18454;DHT22;9356;52.202;20.950;2023-07-22T02:44:43;19.90;99.90
18454;DHT22;9356;52.202;20.950;2023-07-22T02:45:46;20.00;99.80
18454;DHT22;9356;52.202;20.950;2023-07-22T02:46:56;20.10;99.70
18454;DHT22;9356;52.202;20.950;2023-07-22T02:48:05;20.10;99.50
18454;DHT22;9356;52.202;20.950;2023-07-22T02:49:11;20.10;99.50
18454;DHT22;9356;52.202;20.950;2023-07-22T02:50:14;20.20;99.40
18454;DHT22;9356;52.202;20.950;2023-07-22T02:51:19;20.20;99.30
18454;DHT22;9356;52.202;20.950;2023-07-22T02:52:22;20.20;99.20
18454;DHT22;9356;52.202;20.950;2023-07-22T02:53:26;20.20;99.10
18454;DHT22;9356;52.202;20.950;2023-07-22T02:54:30;20.30;99.20
18454;DHT22;9356;52.202;20.950;2023-07-22T02:55:36;20.30;99.00
18454;DHT22;9356;52.202;20.950;2023-07-22T02:56:39;20.30;99.10
18454;DHT22;9356;52.202;20.950;2023-07-22T02:57:48;20.30;99.00
18454;DHT22;9356;52.202;20.950;2023-07-22T02:58:54;20.30;98.90
18454;DHT22;9356;52.202;20.950;2023-07-22T03:00:00;20.40;98.90
18454;DHT22;9356;52.202;20.950;2023-07-22T03:01:10;20.40;98.80
18454;DHT22;9356;52.202;20.950;2023-07-22T03:02:15;20.40;98.80
18454;DHT22;9356;52.202;20.950;2023-07-22T03:03:19;20.40;98.80
18454;DHT22;9356;52.202;20.950;2023-07-22T03:04:24;20.40;98.80
18454;DHT22;9356;52.202;20.950;2023-07-22T03:05:30;20.40;98.70
18454;DHT22;9356;52.202;20.950;2023-07-22T03:06:34;20.40;98.70
18454;DHT22;9356;52.202;20.950;2023-07-22T03:07:39;20.50;98.70
18454;DHT22;9356;52.202;20.950;2023-07-22T03:08:42;20.40;98.50
18454;DHT22;9356;52.202;20.950;2023-07-22T03:09:47;20.40;98.70
18454;DHT22;9356;52.202;20.950;2023-07-22T03:10:50;20.40;98.70
18454;DHT22;9356;52.202;20.950;2023-07-22T03:11:55;20.40;98.70
18454;DHT22;9356;52.202;20.950;2023-07-22T03:13:02;20.40;98.70
18454;DHT22;9356;52.202;20.950;2023-07-22T03:14:07;20.40;98.70
18454;DHT22;9356;52.202;20.950;2023-07-22T03:15:12;20.40;98.60
18454;DHT22;9356;52.202;20.950;2023-07-22T03:16:17;20.40;98.60
18454;DHT22;9356;52.202;20.950;2023-07-22T03:17:20;20.50;98.60
18454;DHT22;9356;52.202;20.950;2023-07-22T03:18:27;20.40;98.50
18454;DHT22;9356;52.202;20.950;2023-07-22T03:19:33;20.50;98.60
18454;DHT22;9356;52.202;20.950;2023-07-22T03:20:40;20.50;98.60
18454;DHT22;9356;52.202;20.950;2023-07-22T03:21:44;20.50;98.60
18454;DHT22;9356;52.202;20.950;2023-07-22T03:22:49;20.60;98.50
18454;DHT22;9356;52.202;20.950;2023-07-22T03:23:52;20.50;98.60
18454;DHT22;9356;52.202;20.950;2023-07-22T03:24:59;20.50;98.60
18454;DHT22;9356;52.202;20.950;2023-07-22T03:26:02;20.50;98.50
18454;DHT22;9356;52.202;20.950;2023-07-22T03:27:06;20.50;98.70
18454;DHT22;9356;52.202;20.950;2023-07-22T03:28:12;20.50;98.60
18454;DHT22;9356;52.202;20.950;2023-07-22T03:29:17;20.50;98.50
18454;DHT22;9356;52.202;20.950;2023-07-22T03:30:22;20.50;98.60
18454;DHT22;9356;52.202;20.950;2023-07-22T03:31:27;22.60;99.20
18454;DHT22;9356;52.202;20.950;2023-07-22T03:32:30;20.60;98.40
18454;DHT22;9356;52.202;20.950;2023-07-22T03:33:35;20.60;98.40
18454;DHT22;9356;52.202;20.950;2023-07-22T03:34:38;20.60;98.40
18454;DHT22;9356;52.202;20.950;2023-07-22T03:35:46;20.70;98.40
18454;DHT22;9356;52.202;20.950;2023-07-22T03:36:49;20.60;98.20
18454;DHT22;9356;52.202;20.950;2023-07-22T03:37:55;20.70;98.40
18454;DHT22;9356;52.202;20.950;2023-07-22T03:38:59;20.60;98.40
18454;DHT22;9356;52.202;20.950;2023-07-22T03:40:07;20.70;98.30
18454;DHT22;9356;52.202;20.950;2023-07-22T03:41:13;20.70;98.30
18454;DHT22;9356;52.202;20.950;2023-07-22T03:42:18;20.70;98.30
18454;DHT22;9356;52.202;20.950;2023-07-22T03:43:22;20.70;98.30
18454;DHT22;9356;52.202;20.950;2023-07-22T03:44:25;20.70;98.40
18454;DHT22;9356;52.202;20.950;2023-07-22T03:45:34;20.70;98.50
18454;DHT22;9356;52.202;20.950;2023-07-22T03:46:37;20.70;98.50
18454;DHT22;9356;52.202;20.950;2023-07-22T03:47:50;20.70;98.50
18454;DHT22;9356;52.202;20.950;2023-07-22T03:48:55;20.60;98.60
18454;DHT22;9356;52.202;20.950;2023-07-22T03:50:00;20.60;98.80
18454;DHT22;9356;52.202;20.950;2023-07-22T03:51:03;20.70;99.00
18454;DHT22;9356;52.202;20.950;2023-07-22T03:52:24;20.60;98.60
18454;DHT22;9356;52.202;20.950;2023-07-22T03:53:27;20.70;98.70
18454;DHT22;9356;52.202;20.950;2023-07-22T03:54:32;20.70;98.70
18454;DHT22;9356;52.202;20.950;2023-07-22T03:55:36;20.70;98.60
18454;DHT22;9356;52.202;20.950;2023-07-22T03:56:41;20.80;98.70
18454;DHT22;9356;52.202;20.950;2023-07-22T03:57:44;20.80;98.60
18454;DHT22;9356;52.202;20.950;2023-07-22T03:58:54;20.80;98.50
18454;DHT22;9356;52.202;20.950;2023-07-22T04:00:01;20.90;98.50
18454;DHT22;9356;52.202;20.950;2023-07-22T04:01:15;20.90;98.40
18454;DHT22;9356;52.202;20.950;2023-07-22T04:02:20;20.90;98.40
18454;DHT22;9356;52.202;20.950;2023-07-22T04:03:26;20.90;98.40
18454;DHT22;9356;52.202;20.950;2023-07-22T04:04:30;20.90;98.50
18454;DHT22;9356;52.202;20.950;2023-07-22T04:05:34;20.90;98.40
18454;DHT22;9356;52.202;20.950;2023-07-22T04:06:38;20.90;98.20
18454;DHT22;9356;52.202;20.950;2023-07-22T04:07:43;20.90;98.30
18454;DHT22;9356;52.202;20.950;2023-07-22T04:08:47;20.80;98.40
18454;DHT22;9356;52.202;20.950;2023-07-22T04:09:51;20.90;98.40
18454;DHT22;9356;52.202;20.950;2023-07-22T04:11:00;20.90;98.50
18454;DHT22;9356;52.202;20.950;2023-07-22T04:12:06;22.40;99.10
18454;DHT22;9356;52.202;20.950;2023-07-22T04:13:09;20.90;98.70
18454;DHT22;9356;52.202;20.950;2023-07-22T04:14:14;21.00;98.60
18454;DHT22;9356;52.202;20.950;2023-07-22T04:15:17;20.90;98.40
18454;DHT22;9356;52.202;20.950;2023-07-22T04:16:20;21.00;98.50
18454;DHT22;9356;52.202;20.950;2023-07-22T04:17:24;20.90;98.40
18454;DHT22;9356;52.202;20.950;2023-07-22T04:18:28;21.00;98.50
18454;DHT22;9356;52.202;20.950;2023-07-22T04:19:37;20.90;98.60
18454;DHT22;9356;52.202;20.950;2023-07-22T04:20:41;21.00;98.60
18454;DHT22;9356;52.202;20.950;2023-07-22T04:21:44;20.90;98.70
18454;DHT22;9356;52.202;20.950;2023-07-22T04:22:48;21.00;98.70
18454;DHT22;9356;52.202;20.950;2023-07-22T04:23:51;21.00;98.60
18454;DHT22;9356;52.202;20.950;2023-07-22T04:24:56;21.00;98.30
18454;DHT22;9356;52.202;20.950;2023-07-22T04:26:04;21.00;98.20
18454;DHT22;9356;52.202;20.950;2023-07-22T04:27:10;21.10;98.20
18454;DHT22;9356;52.202;20.950;2023-07-22T04:28:19;21.10;98.20
18454;DHT22;9356;52.202;20.950;2023-07-22T04:29:23;18.90;97.40
18454;DHT22;9356;52.202;20.950;2023-07-22T04:30:28;21.20;98.10
18454;DHT22;9356;52.202;20.950;2023-07-22T04:31:37;21.20;98.00
18454;DHT22;9356;52.202;20.950;2023-07-22T04:32:40;21.20;98.00
18454;DHT22;9356;52.202;20.950;2023-07-22T04:33:49;21.20;97.80
18454;DHT22;9356;52.202;20.950;2023-07-22T04:34:53;21.20;97.90
18454;DHT22;9356;52.202;20.950;2023-07-22T04:36:03;21.20;98.00
18454;DHT22;9356;52.202;20.950;2023-07-22T04:37:09;21.20;98.00
18454;DHT22;9356;52.202;20.950;2023-07-22T04:38:13;20.60;97.70
18454;DHT22;9356;52.202;20.950;2023-07-22T04:39:17;21.20;98.00
18454;DHT22;9356;52.202;20.950;2023-07-22T04:40:22;21.20;97.70
18454;DHT22;9356;52.202;20.950;2023-07-22T04:41:29;21.20;97.70
18454;DHT22;9356;52.202;20.950;2023-07-22T04:42:32;21.20;97.80
18454;DHT22;9356;52.202;20.950;2023-07-22T04:43:36;21.30;98.00
18454;DHT22;9356;52.202;20.950;2023-07-22T04:44:46;21.20;97.90
18454;DHT22;9356;52.202;20.950;2023-07-22T04:45:49;21.20;97.70
18454;DHT22;9356;52.202;20.950;2023-07-22T04:46:52;21.10;97.90
18454;DHT22;9356;52.202;20.950;2023-07-22T04:47:55;21.20;97.80
18454;DHT22;9356;52.202;20.950;2023-07-22T04:49:01;21.10;97.80
18454;DHT22;9356;52.202;20.950;2023-07-22T04:50:05;21.10;97.80
18454;DHT22;9356;52.202;20.950;2023-07-22T04:51:15;21.20;97.80
18454;DHT22;9356;52.202;20.950;2023-07-22T04:52:18;21.20;97.90
18454;DHT22;9356;52.202;20.950;2023-07-22T04:53:23;21.20;97.60
18454;DHT22;9356;52.202;20.950;2023-07-22T04:54:29;21.20;97.60
18454;DHT22;9356;52.202;20.950;2023-07-22T04:55:35;18.90;97.00
18454;DHT22;9356;52.202;20.950;2023-07-22T04:56:41;21.10;97.70
18454;DHT22;9356;52.202;20.950;2023-07-22T04:57:45;21.10;97.90
18454;DHT22;9356;52.202;20.950;2023-07-22T04:58:48;21.10;97.70
18454;DHT22;9356;52.202;20.950;2023-07-22T04:59:54;21.20;97.80
18454;DHT22;9356;52.202;20.950;2023-07-22T05:00:58;21.00;97.60
18454;DHT22;9356;52.202;20.950;2023-07-22T05:02:03;21.10;97.70
18454;DHT22;9356;52.202;20.950;2023-07-22T05:03:07;21.10;97.90
18454;DHT22;9356;52.202;20.950;2023-07-22T05:04:11;21.10;97.60
18454;DHT22;9356;52.202;20.950;2023-07-22T05:05:17;21.20;97.80
18454;DHT22;9356;52.202;20.950;2023-07-22T05:06:23;21.20;97.60
18454;DHT22;9356;52.202;20.950;2023-07-22T05:07:27;21.20;97.60
18454;DHT22;9356;52.202;20.950;2023-07-22T05:08:32;21.20;97.50
18454;DHT22;9356;52.202;20.950;2023-07-22T05:09:36;21.20;97.70
18454;DHT22;9356;52.202;20.950;2023-07-22T05:10:41;21.10;97.40
18454;DHT22;9356;52.202;20.950;2023-07-22T05:11:46;21.10;97.50
18454;DHT22;9356;52.202;20.950;2023-07-22T05:12:53;21.00;97.30
18454;DHT22;9356;52.202;20.950;2023-07-22T05:13:57;20.90;97.40
18454;DHT22;9356;52.202;20.950;2023-07-22T05:15:01;20.80;97.60
18454;DHT22;9356;52.202;20.950;2023-07-22T05:16:05;20.90;97.80
18454;DHT22;9356;52.202;20.950;2023-07-22T05:17:09;20.80;97.90
18454;DHT22;9356;52.202;20.950;2023-07-22T05:18:11;20.80;97.80
18454;DHT22;9356;52.202;20.950;2023-07-22T05:19:15;20.70;97.80
18454;DHT22;9356;52.202;20.950;2023-07-22T05:20:20;20.70;98.00
18454;DHT22;9356;52.202;20.950;2023-07-22T05:21:24;20.70;98.20
18454;DHT22;9356;52.202;20.950;2023-07-22T05:22:28;20.60;98.10
18454;DHT22;9356;52.202;20.950;2023-07-22T05:23:31;20.60;98.30
18454;DHT22;9356;52.202;20.950;2023-07-22T05:24:37;20.60;98.40
18454;DHT22;9356;52.202;20.950;2023-07-22T05:25:41;20.60;98.60
18454;DHT22;9356;52.202;20.950;2023-07-22T05:26:49;20.60;98.70
18454;DHT22;9356;52.202;20.950;2023-07-22T05:28:13;20.50;98.60
18454;DHT22;9356;52.202;20.950;2023-07-22T05:29:16;20.40;98.90
18454;DHT22;9356;52.202;20.950;2023-07-22T05:30:19;20.50;98.90
18454;DHT22;9356;52.202;20.950;2023-07-22T05:31:37;20.50;98.80
18454;DHT22;9356;52.202;20.950;2023-07-22T05:32:43;20.50;98.90
18454;DHT22;9356;52.202;20.950;2023-07-22T05:33:47;20.50;98.80
18454;DHT22;9356;52.202;20.950;2023-07-22T05:34:54;20.50;98.90
18454;DHT22;9356;52.202;20.950;2023-07-22T05:36:00;20.50;98.80
18454;DHT22;9356;52.202;20.950;2023-07-22T05:37:05;20.60;98.90
18454;DHT22;9356;52.202;20.950;2023-07-22T05:38:09;20.50;98.80
18454;DHT22;9356;52.202;20.950;2023-07-22T05:39:15;20.50;99.00
18454;DHT22;9356;52.202;20.950;2023-07-22T05:40:20;20.50;98.90
18454;DHT22;9356;52.202;20.950;2023-07-22T05:41:29;20.60;99.00
18454;DHT22;9356;52.202;20.950;2023-07-22T05:42:35;20.80;99.00
18454;DHT22;9356;52.202;20.950;2023-07-22T05:43:42;20.60;98.90
18454;DHT22;9356;52.202;20.950;2023-07-22T05:44:49;21.50;98.90
18454;DHT22;9356;52.202;20.950;2023-07-22T05:45:53;20.40;98.90
18454;DHT22;9356;52.202;20.950;2023-07-22T05:46:56;20.50;99.00
18454;DHT22;9356;52.202;20.950;2023-07-22T05:48:00;20.50;99.10
18454;DHT22;9356;52.202;20.950;2023-07-22T05:49:03;17.50;98.20
18454;DHT22;9356;52.202;20.950;2023-07-22T05:50:10;20.50;99.00
18454;DHT22;9356;52.202;20.950;2023-07-22T05:51:15;20.50;99.00
18454;DHT22;9356;52.202;20.950;2023-07-22T05:52:19;20.50;98.90
18454;DHT22;9356;52.202;20.950;2023-07-22T05:53:25;20.60;99.00
18454;DHT22;9356;52.202;20.950;2023-07-22T05:54:28;20.60;99.00
18454;DHT22;9356;52.202;20.950;2023-07-22T05:55:32;20.50;99.00
18454;DHT22;9356;52.202;20.950;2023-07-22T05:56:35;20.50;99.00
18454;DHT22;9356;52.202;20.950;2023-07-22T05:57:41;20.60;99.20
18454;DHT22;9356;52.202;20.950;2023-07-22T05:58:47;20.60;98.90
18454;DHT22;9356;52.202;20.950;2023-07-22T05:59:51;20.60;98.90
18454;DHT22;9356;52.202;20.950;2023-07-22T06:01:13;20.50;98.70
18454;DHT22;9356;52.202;20.950;2023-07-22T06:02:17;20.50;98.90
18454;DHT22;9356;52.202;20.950;2023-07-22T06:03:22;20.60;99.10
18454;DHT22;9356;52.202;20.950;2023-07-22T06:04:25;20.70;99.00
18454;DHT22;9356;52.202;20.950;2023-07-22T06:05:29;20.70;98.80
18454;DHT22;9356;52.202;20.950;2023-07-22T06:06:33;20.70;98.70
18454;DHT22;9356;52.202;20.950;2023-07-22T06:07:37;20.70;98.60
18454;DHT22;9356;52.202;20.950;2023-07-22T06:08:42;20.80;98.70
18454;DHT22;9356;52.202;20.950;2023-07-22T06:09:45;20.90;98.70
18454;DHT22;9356;52.202;20.950;2023-07-22T06:10:49;20.90;98.50
18454;DHT22;9356;52.202;20.950;2023-07-22T06:11:52;21.80;98.50
18454;DHT22;9356;52.202;20.950;2023-07-22T06:12:59;21.00;98.30
18454;DHT22;9356;52.202;20.950;2023-07-22T06:14:04;21.00;98.10
18454;DHT22;9356;52.202;20.950;2023-07-22T06:15:11;20.90;98.40
18454;DHT22;9356;52.202;20.950;2023-07-22T06:16:14;20.90;98.20
18454;DHT22;9356;52.202;20.950;2023-07-22T06:17:23;20.90;98.20
18454;DHT22;9356;52.202;20.950;2023-07-22T06:18:26;20.90;98.10
18454;DHT22;9356;52.202;20.950;2023-07-22T06:19:31;21.00;98.20
18454;DHT22;9356;52.202;20.950;2023-07-22T06:20:34;21.00;98.20
18454;DHT22;9356;52.202;20.950;2023-07-22T06:21:39;21.00;98.10
18454;DHT22;9356;52.202;20.950;2023-07-22T06:22:43;21.00;97.90
18454;DHT22;9356;52.202;20.950;2023-07-22T06:23:47;21.00;97.90
18454;DHT22;9356;52.202;20.950;2023-07-22T06:24:53;20.90;97.70
18454;DHT22;9356;52.202;20.950;2023-07-22T06:25:57;20.90;98.10
18454;DHT22;9356;52.202;20.950;2023-07-22T06:27:01;21.00;97.90
18454;DHT22;9356;52.202;20.950;2023-07-22T06:28:07;21.00;97.70
18454;DHT22;9356;52.202;20.950;2023-07-22T06:29:10;21.10;97.70
18454;DHT22;9356;52.202;20.950;2023-07-22T06:30:15;21.00;97.80
18454;DHT22;9356;52.202;20.950;2023-07-22T06:31:18;21.10;97.90
18454;DHT22;9356;52.202;20.950;2023-07-22T06:32:22;22.90;98.30
18454;DHT22;9356;52.202;20.950;2023-07-22T06:33:27;21.20;97.80
18454;DHT22;9356;52.202;20.950;2023-07-22T06:34:31;21.30;97.50
18454;DHT22;9356;52.202;20.950;2023-07-22T06:35:35;21.30;97.50
18454;DHT22;9356;52.202;20.950;2023-07-22T06:36:40;21.40;97.50
18454;DHT22;9356;52.202;20.950;2023-07-22T06:37:43;21.40;97.30
18454;DHT22;9356;52.202;20.950;2023-07-22T06:38:48;21.40;96.70
18454;DHT22;9356;52.202;20.950;2023-07-22T06:39:51;21.40;96.80
18454;DHT22;9356;52.202;20.950;2023-07-22T06:40:56;21.50;96.80
18454;DHT22;9356;52.202;20.950;2023-07-22T06:42:00;21.40;96.40
18454;DHT22;9356;52.202;20.950;2023-07-22T06:43:06;21.50;96.10
18454;DHT22;9356;52.202;20.950;2023-07-22T06:44:09;21.60;96.30
18454;DHT22;9356;52.202;20.950;2023-07-22T06:45:13;21.60;95.10
18454;DHT22;9356;52.202;20.950;2023-07-22T06:46:19;21.60;95.60
18454;DHT22;9356;52.202;20.950;2023-07-22T06:47:23;21.90;95.80
18454;DHT22;9356;52.202;20.950;2023-07-22T06:48:26;22.00;95.70
18454;DHT22;9356;52.202;20.950;2023-07-22T06:49:34;22.10;95.50
18454;DHT22;9356;52.202;20.950;2023-07-22T06:50:37;22.20;95.20
18454;DHT22;9356;52.202;20.950;2023-07-22T06:51:51;22.30;94.70
18454;DHT22;9356;52.202;20.950;2023-07-22T06:52:54;22.30;94.10